Halkirk, Canada
Current Conditions -  °F | °C
As of 3:00 AM on Friday 24 Oct 2014 (Local Time) from CYQF Reporting Station
Scattered Clouds Scattered Clouds  
Wind Chill: 36°   Ceiling: Unl
Heat Index: 41°   Visibility: 15mi
Dew Point: 23°   Wind: 8mph
Humidity: 49%   Direction: 360°N
Pressure: 29.69"   Gusts: NA
Location:  52.28°N, 112.15°W
Report Text: CYQF 240900Z 36007KT 15SM FEW070 SCT160 05/M05 A2969 RMK AC1AC3 SLP067
Loading
Personal Weather Stations






























Interactive Weather Map
Tropical Storm Tracking
New forecast layout! Learn more

10-Day Weather Forecast

Advertisements
Track Severe Weather on mobile